sensor_id;sensor_type;location;lat;lon;timestamp;temperature;humidity
40287;DHT22;25998;46.604;13.610;2023-04-25T00:00:28;6.00;99.90
40287;DHT22;25998;46.604;13.610;2023-04-25T00:03:39;5.90;99.90
40287;DHT22;25998;46.604;13.610;2023-04-25T00:06:50;5.90;99.90
40287;DHT22;25998;46.604;13.610;2023-04-25T00:10:03;5.90;99.90
40287;DHT22;25998;46.604;13.610;2023-04-25T00:13:14;5.90;99.90
40287;DHT22;25998;46.604;13.610;2023-04-25T00:16:28;5.80;99.90
40287;DHT22;25998;46.604;13.610;2023-04-25T00:19:41;5.80;99.90
40287;DHT22;25998;46.604;13.610;2023-04-25T00:22:51;5.80;99.90
40287;DHT22;25998;46.604;13.610;2023-04-25T00:26:03;6.00;99.90
40287;DHT22;25998;46.604;13.610;2023-04-25T00:29:14;6.00;99.90
40287;DHT22;25998;46.604;13.610;2023-04-25T00:32:25;6.00;99.90
40287;DHT22;25998;46.604;13.610;2023-04-25T00:35:36;6.00;99.90
40287;DHT22;25998;46.604;13.610;2023-04-25T00:38:47;5.90;99.90
40287;DHT22;25998;46.604;13.610;2023-04-25T00:41:58;5.90;99.90
40287;DHT22;25998;46.604;13.610;2023-04-25T00:45:13;6.00;99.90
40287;DHT22;25998;46.604;13.610;2023-04-25T00:48:25;6.00;99.90
40287;DHT22;25998;46.604;13.610;2023-04-25T00:51:36;6.30;99.90
40287;DHT22;25998;46.604;13.610;2023-04-25T00:54:47;6.10;99.90
40287;DHT22;25998;46.604;13.610;2023-04-25T00:57:58;5.80;99.90
40287;DHT22;25998;46.604;13.610;2023-04-25T01:01:12;5.60;99.90
40287;DHT22;25998;46.604;13.610;2023-04-25T01:04:23;5.70;99.90
40287;DHT22;25998;46.604;13.610;2023-04-25T01:07:34;5.90;99.90
40287;DHT22;25998;46.604;13.610;2023-04-25T01:10:45;6.10;99.90
40287;DHT22;25998;46.604;13.610;2023-04-25T01:13:56;6.20;99.90
40287;DHT22;25998;46.604;13.610;2023-04-25T01:17:08;6.00;99.90
40287;DHT22;25998;46.604;13.610;2023-04-25T01:20:21;6.00;99.90
40287;DHT22;25998;46.604;13.610;2023-04-25T01:23:33;6.10;99.90
40287;DHT22;25998;46.604;13.610;2023-04-25T01:26:44;6.20;99.90
40287;DHT22;25998;46.604;13.610;2023-04-25T01:30:00;6.10;99.90
40287;DHT22;25998;46.604;13.610;2023-04-25T01:33:12;6.10;99.90
40287;DHT22;25998;46.604;13.610;2023-04-25T01:36:24;6.20;99.90
40287;DHT22;25998;46.604;13.610;2023-04-25T01:39:35;6.10;99.90
40287;DHT22;25998;46.604;13.610;2023-04-25T01:42:46;6.20;99.90
40287;DHT22;25998;46.604;13.610;2023-04-25T01:45:57;6.10;99.90
40287;DHT22;25998;46.604;13.610;2023-04-25T01:49:09;5.90;99.90
40287;DHT22;25998;46.604;13.610;2023-04-25T01:52:20;5.70;99.90
40287;DHT22;25998;46.604;13.610;2023-04-25T01:55:31;5.60;99.90
40287;DHT22;25998;46.604;13.610;2023-04-25T01:58:41;5.60;99.90
40287;DHT22;25998;46.604;13.610;2023-04-25T02:01:52;5.60;99.90
40287;DHT22;25998;46.604;13.610;2023-04-25T02:05:03;5.60;99.90
40287;DHT22;25998;46.604;13.610;2023-04-25T02:08:17;5.70;99.90
40287;DHT22;25998;46.604;13.610;2023-04-25T02:11:29;5.70;99.90
40287;DHT22;25998;46.604;13.610;2023-04-25T02:14:39;5.90;99.90
40287;DHT22;25998;46.604;13.610;2023-04-25T02:17:50;5.90;99.90
40287;DHT22;25998;46.604;13.610;2023-04-25T02:21:03;5.70;99.90
40287;DHT22;25998;46.604;13.610;2023-04-25T02:24:14;5.60;99.90
40287;DHT22;25998;46.604;13.610;2023-04-25T02:27:25;5.70;99.90
40287;DHT22;25998;46.604;13.610;2023-04-25T02:30:36;5.70;99.90
40287;DHT22;25998;46.604;13.610;2023-04-25T02:33:48;5.80;99.90
40287;DHT22;25998;46.604;13.610;2023-04-25T02:36:59;5.60;99.90
40287;DHT22;25998;46.604;13.610;2023-04-25T02:40:10;5.50;99.90
40287;DHT22;25998;46.604;13.610;2023-04-25T02:43:21;5.30;99.90
40287;DHT22;25998;46.604;13.610;2023-04-25T02:46:32;5.40;99.90
40287;DHT22;25998;46.604;13.610;2023-04-25T02:49:43;5.60;99.90
40287;DHT22;25998;46.604;13.610;2023-04-25T02:52:54;5.40;99.90
40287;DHT22;25998;46.604;13.610;2023-04-25T02:56:05;5.30;99.90
40287;DHT22;25998;46.604;13.610;2023-04-25T02:59:16;5.20;99.90
40287;DHT22;25998;46.604;13.610;2023-04-25T03:02:27;5.40;99.90
40287;DHT22;25998;46.604;13.610;2023-04-25T03:05:38;5.30;99.90
40287;DHT22;25998;46.604;13.610;2023-04-25T03:08:49;5.30;99.90
40287;DHT22;25998;46.604;13.610;2023-04-25T03:12:00;5.30;99.90
40287;DHT22;25998;46.604;13.610;2023-04-25T03:15:12;5.30;99.90
40287;DHT22;25998;46.604;13.610;2023-04-25T03:18:22;5.40;99.90
40287;DHT22;25998;46.604;13.610;2023-04-25T03:21:34;5.50;99.90
40287;DHT22;25998;46.604;13.610;2023-04-25T03:24:45;5.50;99.90
40287;DHT22;25998;46.604;13.610;2023-04-25T03:27:57;5.30;99.90
40287;DHT22;25998;46.604;13.610;2023-04-25T03:31:08;5.30;99.90
40287;DHT22;25998;46.604;13.610;2023-04-25T03:34:21;5.20;99.90
40287;DHT22;25998;46.604;13.610;2023-04-25T03:37:32;5.10;99.90
40287;DHT22;25998;46.604;13.610;2023-04-25T03:40:43;4.90;99.90
40287;DHT22;25998;46.604;13.610;2023-04-25T03:43:53;4.70;99.90
40287;DHT22;25998;46.604;13.610;2023-04-25T03:47:04;4.60;99.90
40287;DHT22;25998;46.604;13.610;2023-04-25T03:50:15;4.50;99.90
40287;DHT22;25998;46.604;13.610;2023-04-25T03:53:26;4.60;99.90
40287;DHT22;25998;46.604;13.610;2023-04-25T03:56:37;4.80;99.90
40287;DHT22;25998;46.604;13.610;2023-04-25T03:59:48;5.00;99.90
40287;DHT22;25998;46.604;13.610;2023-04-25T04:02:58;4.90;99.90
40287;DHT22;25998;46.604;13.610;2023-04-25T04:06:10;4.80;99.90
40287;DHT22;25998;46.604;13.610;2023-04-25T04:09:21;4.70;99.90
40287;DHT22;25998;46.604;13.610;2023-04-25T04:12:32;4.90;99.90
40287;DHT22;25998;46.604;13.610;2023-04-25T04:15:43;4.90;99.90
40287;DHT22;25998;46.604;13.610;2023-04-25T04:18:54;4.70;99.90
40287;DHT22;25998;46.604;13.610;2023-04-25T04:22:05;4.50;99.90
40287;DHT22;25998;46.604;13.610;2023-04-25T04:25:16;4.50;99.90
40287;DHT22;25998;46.604;13.610;2023-04-25T04:28:27;4.40;99.90
40287;DHT22;25998;46.604;13.610;2023-04-25T04:31:38;4.50;99.90
40287;DHT22;25998;46.604;13.610;2023-04-25T04:34:49;4.50;99.90
40287;DHT22;25998;46.604;13.610;2023-04-25T04:38:00;4.40;99.90
40287;DHT22;25998;46.604;13.610;2023-04-25T04:41:11;4.50;99.90
40287;DHT22;25998;46.604;13.610;2023-04-25T04:44:22;4.60;99.90
40287;DHT22;25998;46.604;13.610;2023-04-25T04:47:33;4.80;99.90
40287;DHT22;25998;46.604;13.610;2023-04-25T04:50:44;4.90;99.90
40287;DHT22;25998;46.604;13.610;2023-04-25T04:53:56;4.80;99.90
40287;DHT22;25998;46.604;13.610;2023-04-25T04:57:08;4.90;99.90
40287;DHT22;25998;46.604;13.610;2023-04-25T05:00:20;4.90;99.90
40287;DHT22;25998;46.604;13.610;2023-04-25T05:03:31;4.80;99.90
40287;DHT22;25998;46.604;13.610;2023-04-25T05:06:42;4.90;99.90
40287;DHT22;25998;46.604;13.610;2023-04-25T05:09:55;5.00;99.90
40287;DHT22;25998;46.604;13.610;2023-04-25T05:13:06;5.00;99.90
40287;DHT22;25998;46.604;13.610;2023-04-25T05:16:17;5.20;99.90
40287;DHT22;25998;46.604;13.610;2023-04-25T05:19:28;5.20;99.90
40287;DHT22;25998;46.604;13.610;2023-04-25T05:22:39;5.10;99.90
40287;DHT22;25998;46.604;13.610;2023-04-25T05:25:52;5.00;99.90
40287;DHT22;25998;46.604;13.610;2023-04-25T05:29:02;5.00;99.90
40287;DHT22;25998;46.604;13.610;2023-04-25T05:32:13;5.00;99.90
40287;DHT22;25998;46.604;13.610;2023-04-25T05:35:24;4.80;99.90
40287;DHT22;25998;46.604;13.610;2023-04-25T05:38:35;4.60;99.90
40287;DHT22;25998;46.604;13.610;2023-04-25T05:41:46;4.60;99.90
40287;DHT22;25998;46.604;13.610;2023-04-25T05:44:57;4.60;99.90
40287;DHT22;25998;46.604;13.610;2023-04-25T05:48:08;4.60;99.90
40287;DHT22;25998;46.604;13.610;2023-04-25T05:51:18;4.70;99.90
40287;DHT22;25998;46.604;13.610;2023-04-25T05:54:29;4.60;99.90
40287;DHT22;25998;46.604;13.610;2023-04-25T05:57:40;4.70;99.90
40287;DHT22;25998;46.604;13.610;2023-04-25T06:00:53;4.80;99.90
40287;DHT22;25998;46.604;13.610;2023-04-25T06:04:03;5.00;99.90
40287;DHT22;25998;46.604;13.610;2023-04-25T06:07:15;5.00;99.90
40287;DHT22;25998;46.604;13.610;2023-04-25T06:10:26;5.00;99.90
40287;DHT22;25998;46.604;13.610;2023-04-25T06:13:36;4.80;99.90
40287;DHT22;25998;46.604;13.610;2023-04-25T06:16:47;4.80;99.90
40287;DHT22;25998;46.604;13.610;2023-04-25T06:19:58;4.90;99.90
40287;DHT22;25998;46.604;13.610;2023-04-25T06:23:09;5.10;99.90
40287;DHT22;25998;46.604;13.610;2023-04-25T06:26:20;5.30;99.90
40287;DHT22;25998;46.604;13.610;2023-04-25T06:29:31;5.40;99.90
40287;DHT22;25998;46.604;13.610;2023-04-25T06:32:42;5.40;99.90
40287;DHT22;25998;46.604;13.610;2023-04-25T06:35:52;5.30;99.90
40287;DHT22;25998;46.604;13.610;2023-04-25T06:39:03;5.40;99.90
40287;DHT22;25998;46.604;13.610;2023-04-25T06:42:14;5.60;99.90
40287;DHT22;25998;46.604;13.610;2023-04-25T06:45:25;6.20;99.90
40287;DHT22;25998;46.604;13.610;2023-04-25T06:48:36;6.50;99.90
40287;DHT22;25998;46.604;13.610;2023-04-25T06:51:47;6.80;99.90
40287;DHT22;25998;46.604;13.610;2023-04-25T06:54:58;7.00;99.90
40287;DHT22;25998;46.604;13.610;2023-04-25T06:58:09;7.30;99.90
40287;DHT22;25998;46.604;13.610;2023-04-25T07:01:20;7.50;99.90
40287;DHT22;25998;46.604;13.610;2023-04-25T07:04:30;7.60;99.90
40287;DHT22;25998;46.604;13.610;2023-04-25T07:07:41;7.90;99.90
40287;DHT22;25998;46.604;13.610;2023-04-25T07:10:52;8.00;99.90
40287;DHT22;25998;46.604;13.610;2023-04-25T07:14:03;7.70;99.90
40287;DHT22;25998;46.604;13.610;2023-04-25T07:17:14;7.50;99.90
40287;DHT22;25998;46.604;13.610;2023-04-25T07:20:25;7.60;99.90
40287;DHT22;25998;46.604;13.610;2023-04-25T07:23:38;7.50;99.90
40287;DHT22;25998;46.604;13.610;2023-04-25T07:26:51;7.20;99.90
40287;DHT22;25998;46.604;13.610;2023-04-25T07:30:02;6.70;99.90
40287;DHT22;25998;46.604;13.610;2023-04-25T07:33:14;6.50;99.90
40287;DHT22;25998;46.604;13.610;2023-04-25T07:36:25;6.50;99.90
40287;DHT22;25998;46.604;13.610;2023-04-25T07:39:37;6.50;99.90
40287;DHT22;25998;46.604;13.610;2023-04-25T07:42:47;6.60;99.90
40287;DHT22;25998;46.604;13.610;2023-04-25T07:45:58;6.80;99.90
40287;DHT22;25998;46.604;13.610;2023-04-25T07:49:09;6.80;99.90
40287;DHT22;25998;46.604;13.610;2023-04-25T07:52:20;6.90;99.90
40287;DHT22;25998;46.604;13.610;2023-04-25T07:55:32;6.90;99.90
40287;DHT22;25998;46.604;13.610;2023-04-25T07:58:42;6.90;99.90
40287;DHT22;25998;46.604;13.610;2023-04-25T08:01:53;7.10;99.90
40287;DHT22;25998;46.604;13.610;2023-04-25T08:05:04;7.50;99.90
40287;DHT22;25998;46.604;13.610;2023-04-25T08:08:17;7.90;99.90
40287;DHT22;25998;46.604;13.610;2023-04-25T08:11:28;8.10;99.90
40287;DHT22;25998;46.604;13.610;2023-04-25T08:14:38;8.40;99.90
40287;DHT22;25998;46.604;13.610;2023-04-25T08:17:50;8.80;99.90
40287;DHT22;25998;46.604;13.610;2023-04-25T08:21:01;9.10;99.90
40287;DHT22;25998;46.604;13.610;2023-04-25T08:24:11;9.10;99.90
40287;DHT22;25998;46.604;13.610;2023-04-25T08:27:22;9.00;99.90
40287;DHT22;25998;46.604;13.610;2023-04-25T08:30:34;9.20;99.90
40287;DHT22;25998;46.604;13.610;2023-04-25T08:33:45;9.10;99.90
40287;DHT22;25998;46.604;13.610;2023-04-25T08:36:56;9.00;99.90
40287;DHT22;25998;46.604;13.610;2023-04-25T08:40:12;9.10;99.90
40287;DHT22;25998;46.604;13.610;2023-04-25T08:43:25;9.40;99.90
40287;DHT22;25998;46.604;13.610;2023-04-25T08:46:38;9.50;99.90
40287;DHT22;25998;46.604;13.610;2023-04-25T08:49:50;9.40;99.90
40287;DHT22;25998;46.604;13.610;2023-04-25T08:53:06;9.20;99.90
40287;DHT22;25998;46.604;13.610;2023-04-25T08:56:19;9.30;99.90
40287;DHT22;25998;46.604;13.610;2023-04-25T08:59:33;9.80;99.90
40287;DHT22;25998;46.604;13.610;2023-04-25T09:02:43;10.10;99.90
40287;DHT22;25998;46.604;13.610;2023-04-25T09:05:55;10.40;99.90
40287;DHT22;25998;46.604;13.610;2023-04-25T09:09:07;10.60;99.90
40287;DHT22;25998;46.604;13.610;2023-04-25T09:12:19;10.80;99.90
40287;DHT22;25998;46.604;13.610;2023-04-25T09:15:31;10.90;99.90
40287;DHT22;25998;46.604;13.610;2023-04-25T09:18:41;10.60;99.90
40287;DHT22;25998;46.604;13.610;2023-04-25T09:21:57;10.60;99.90
40287;DHT22;25998;46.604;13.610;2023-04-25T09:28:24;11.20;99.90
40287;DHT22;25998;46.604;13.610;2023-04-25T09:31:38;11.30;99.90
40287;DHT22;25998;46.604;13.610;2023-04-25T09:34:51;11.80;99.90
40287;DHT22;25998;46.604;13.610;2023-04-25T09:38:08;11.90;99.90
40287;DHT22;25998;46.604;13.610;2023-04-25T09:41:23;12.00;99.90
40287;DHT22;25998;46.604;13.610;2023-04-25T09:44:36;11.90;99.90
40287;DHT22;25998;46.604;13.610;2023-04-25T09:47:46;11.90;99.90
40287;DHT22;25998;46.604;13.610;2023-04-25T09:54:16;12.20;99.90
40287;DHT22;25998;46.604;13.610;2023-04-25T09:57:26;12.20;99.90
40287;DHT22;25998;46.604;13.610;2023-04-25T10:00:38;12.40;99.90
40287;DHT22;25998;46.604;13.610;2023-04-25T10:03:50;12.50;99.90
40287;DHT22;25998;46.604;13.610;2023-04-25T10:07:05;12.40;99.90
40287;DHT22;25998;46.604;13.610;2023-04-25T10:10:16;12.50;99.90
40287;DHT22;25998;46.604;13.610;2023-04-25T10:13:30;12.50;99.90
40287;DHT22;25998;46.604;13.610;2023-04-25T10:16:42;12.60;99.90
40287;DHT22;25998;46.604;13.610;2023-04-25T10:19:54;12.30;99.90
40287;DHT22;25998;46.604;13.610;2023-04-25T10:23:15;12.40;99.90
40287;DHT22;25998;46.604;13.610;2023-04-25T10:26:27;12.70;99.90
40287;DHT22;25998;46.604;13.610;2023-04-25T10:29:39;12.50;99.90
40287;DHT22;25998;46.604;13.610;2023-04-25T10:32:55;12.50;99.90
40287;DHT22;25998;46.604;13.610;2023-04-25T10:36:20;12.50;99.90
40287;DHT22;25998;46.604;13.610;2023-04-25T10:39:32;12.60;99.90
40287;DHT22;25998;46.604;13.610;2023-04-25T10:42:44;12.80;99.90
40287;DHT22;25998;46.604;13.610;2023-04-25T10:45:55;13.00;99.90
40287;DHT22;25998;46.604;13.610;2023-04-25T10:49:08;12.90;99.90
40287;DHT22;25998;46.604;13.610;2023-04-25T10:52:27;12.90;99.90
40287;DHT22;25998;46.604;13.610;2023-04-25T10:55:51;12.70;99.90
40287;DHT22;25998;46.604;13.610;2023-04-25T10:59:11;12.80;99.90
40287;DHT22;25998;46.604;13.610;2023-04-25T11:02:26;12.90;99.90
40287;DHT22;25998;46.604;13.610;2023-04-25T11:05:40;13.00;99.90
40287;DHT22;25998;46.604;13.610;2023-04-25T11:08:52;13.10;99.90
40287;DHT22;25998;46.604;13.610;2023-04-25T11:12:03;13.10;99.60
40287;DHT22;25998;46.604;13.610;2023-04-25T11:15:15;13.10;99.90
40287;DHT22;25998;46.604;13.610;2023-04-25T11:18:26;13.00;99.90
40287;DHT22;25998;46.604;13.610;2023-04-25T11:21:38;13.10;99.90
40287;DHT22;25998;46.604;13.610;2023-04-25T11:24:48;13.40;99.90
40287;DHT22;25998;46.604;13.610;2023-04-25T11:27:59;13.40;99.90
40287;DHT22;25998;46.604;13.610;2023-04-25T11:31:13;13.30;99.90
40287;DHT22;25998;46.604;13.610;2023-04-25T11:34:25;13.50;99.90
40287;DHT22;25998;46.604;13.610;2023-04-25T11:37:36;13.70;99.90
40287;DHT22;25998;46.604;13.610;2023-04-25T11:40:53;13.70;99.90
40287;DHT22;25998;46.604;13.610;2023-04-25T11:44:04;13.90;99.90
40287;DHT22;25998;46.604;13.610;2023-04-25T11:47:16;14.00;99.90
40287;DHT22;25998;46.604;13.610;2023-04-25T11:50:28;13.90;99.90
40287;DHT22;25998;46.604;13.610;2023-04-25T11:53:41;14.00;99.90
40287;DHT22;25998;46.604;13.610;2023-04-25T11:56:53;14.10;99.90
40287;DHT22;25998;46.604;13.610;2023-04-25T12:00:20;14.40;98.70
40287;DHT22;25998;46.604;13.610;2023-04-25T12:03:31;14.50;98.00
40287;DHT22;25998;46.604;13.610;2023-04-25T12:06:45;14.60;97.90
40287;DHT22;25998;46.604;13.610;2023-04-25T12:09:59;14.60;97.60
40287;DHT22;25998;46.604;13.610;2023-04-25T12:13:24;14.60;95.80
40287;DHT22;25998;46.604;13.610;2023-04-25T12:16:42;14.70;95.90
40287;DHT22;25998;46.604;13.610;2023-04-25T12:19:53;14.70;96.40
40287;DHT22;25998;46.604;13.610;2023-04-25T12:23:06;14.60;95.50
40287;DHT22;25998;46.604;13.610;2023-04-25T12:26:22;14.50;96.50
40287;DHT22;25998;46.604;13.610;2023-04-25T12:29:34;14.40;96.50
40287;DHT22;25998;46.604;13.610;2023-04-25T12:32:45;14.50;95.00
40287;DHT22;25998;46.604;13.610;2023-04-25T12:35:56;14.40;93.70
40287;DHT22;25998;46.604;13.610;2023-04-25T12:39:08;14.30;94.50
40287;DHT22;25998;46.604;13.610;2023-04-25T12:42:18;14.20;96.00
40287;DHT22;25998;46.604;13.610;2023-04-25T12:45:29;14.00;96.80
40287;DHT22;25998;46.604;13.610;2023-04-25T12:48:40;13.70;98.10
40287;DHT22;25998;46.604;13.610;2023-04-25T12:51:52;13.40;96.20
40287;DHT22;25998;46.604;13.610;2023-04-25T12:55:03;12.70;96.70
40287;DHT22;25998;46.604;13.610;2023-04-25T12:58:15;12.00;98.90
40287;DHT22;25998;46.604;13.610;2023-04-25T13:01:26;11.00;99.90
40287;DHT22;25998;46.604;13.610;2023-04-25T13:04:37;10.70;99.90
40287;DHT22;25998;46.604;13.610;2023-04-25T13:07:48;10.70;99.90
40287;DHT22;25998;46.604;13.610;2023-04-25T13:10:58;10.90;99.90
40287;DHT22;25998;46.604;13.610;2023-04-25T13:14:10;11.20;99.90
40287;DHT22;25998;46.604;13.610;2023-04-25T13:17:21;11.50;99.90
40287;DHT22;25998;46.604;13.610;2023-04-25T13:20:32;11.60;99.90
40287;DHT22;25998;46.604;13.610;2023-04-25T13:23:43;11.80;99.90
40287;DHT22;25998;46.604;13.610;2023-04-25T13:26:55;11.80;99.90
40287;DHT22;25998;46.604;13.610;2023-04-25T13:30:06;11.90;99.90
40287;DHT22;25998;46.604;13.610;2023-04-25T13:33:20;12.00;99.90
40287;DHT22;25998;46.604;13.610;2023-04-25T13:36:32;11.90;99.90
40287;DHT22;25998;46.604;13.610;2023-04-25T13:39:42;12.10;99.90
40287;DHT22;25998;46.604;13.610;2023-04-25T13:42:53;12.50;99.90
40287;DHT22;25998;46.604;13.610;2023-04-25T13:46:04;13.10;99.90
40287;DHT22;25998;46.604;13.610;2023-04-25T13:49:15;13.40;99.90
40287;DHT22;25998;46.604;13.610;2023-04-25T13:52:26;13.60;99.90
40287;DHT22;25998;46.604;13.610;2023-04-25T13:55:37;13.70;99.10
40287;DHT22;25998;46.604;13.610;2023-04-25T13:58:50;13.60;99.30
40287;DHT22;25998;46.604;13.610;2023-04-25T14:02:02;13.70;98.30
40287;DHT22;25998;46.604;13.610;2023-04-25T14:05:13;13.60;97.00
40287;DHT22;25998;46.604;13.610;2023-04-25T14:08:23;13.60;97.60
40287;DHT22;25998;46.604;13.610;2023-04-25T14:11:34;13.40;96.50
40287;DHT22;25998;46.604;13.610;2023-04-25T14:14:45;13.30;97.40
40287;DHT22;25998;46.604;13.610;2023-04-25T14:17:59;13.50;98.10
40287;DHT22;25998;46.604;13.610;2023-04-25T14:21:10;13.70;98.70
40287;DHT22;25998;46.604;13.610;2023-04-25T14:24:21;14.10;98.80
40287;DHT22;25998;46.604;13.610;2023-04-25T14:27:32;13.70;97.50
40287;DHT22;25998;46.604;13.610;2023-04-25T14:30:43;13.90;97.70
40287;DHT22;25998;46.604;13.610;2023-04-25T14:33:54;13.90;96.60
40287;DHT22;25998;46.604;13.610;2023-04-25T14:37:08;13.50;96.30
40287;DHT22;25998;46.604;13.610;2023-04-25T14:40:19;13.40;97.10
40287;DHT22;25998;46.604;13.610;2023-04-25T14:43:33;13.40;96.60
40287;DHT22;25998;46.604;13.610;2023-04-25T14:46:44;13.40;97.30
40287;DHT22;25998;46.604;13.610;2023-04-25T14:49:56;13.70;97.60
40287;DHT22;25998;46.604;13.610;2023-04-25T14:53:06;13.70;96.40
40287;DHT22;25998;46.604;13.610;2023-04-25T14:56:17;13.80;96.10
40287;DHT22;25998;46.604;13.610;2023-04-25T14:59:31;13.60;95.70
40287;DHT22;25998;46.604;13.610;2023-04-25T15:02:42;13.40;96.10
40287;DHT22;25998;46.604;13.610;2023-04-25T15:05:55;13.20;96.70
40287;DHT22;25998;46.604;13.610;2023-04-25T15:09:06;13.20;97.40
40287;DHT22;25998;46.604;13.610;2023-04-25T15:12:17;13.20;97.00
40287;DHT22;25998;46.604;13.610;2023-04-25T15:15:28;13.30;96.30
40287;DHT22;25998;46.604;13.610;2023-04-25T15:18:38;13.20;95.60
40287;DHT22;25998;46.604;13.610;2023-04-25T15:21:49;13.20;96.60
40287;DHT22;25998;46.604;13.610;2023-04-25T15:25:00;13.30;96.30
40287;DHT22;25998;46.604;13.610;2023-04-25T15:28:11;13.40;95.90
40287;DHT22;25998;46.604;13.610;2023-04-25T15:31:25;13.50;96.70
40287;DHT22;25998;46.604;13.610;2023-04-25T15:34:36;13.50;97.40
40287;DHT22;25998;46.604;13.610;2023-04-25T15:37:47;13.70;97.40
40287;DHT22;25998;46.604;13.610;2023-04-25T15:40:58;13.70;97.10
40287;DHT22;25998;46.604;13.610;2023-04-25T15:44:09;13.70;97.00
40287;DHT22;25998;46.604;13.610;2023-04-25T15:47:20;13.60;96.90
40287;DHT22;25998;46.604;13.610;2023-04-25T15:50:31;13.60;97.60
40287;DHT22;25998;46.604;13.610;2023-04-25T15:53:42;13.90;96.60
40287;DHT22;25998;46.604;13.610;2023-04-25T15:56:53;14.00;96.30
40287;DHT22;25998;46.604;13.610;2023-04-25T16:00:05;14.10;96.10
40287;DHT22;25998;46.604;13.610;2023-04-25T16:03:23;14.10;96.20
40287;DHT22;25998;46.604;13.610;2023-04-25T16:06:33;14.30;95.60
40287;DHT22;25998;46.604;13.610;2023-04-25T16:09:44;14.20;94.40
40287;DHT22;25998;46.604;13.610;2023-04-25T16:12:56;14.10;93.50
40287;DHT22;25998;46.604;13.610;2023-04-25T16:16:07;13.90;93.50
40287;DHT22;25998;46.604;13.610;2023-04-25T16:19:18;13.80;96.10
40287;DHT22;25998;46.604;13.610;2023-04-25T16:22:29;13.70;95.60
40287;DHT22;25998;46.604;13.610;2023-04-25T16:25:39;13.50;96.50
40287;DHT22;25998;46.604;13.610;2023-04-25T16:28:52;13.30;97.20
40287;DHT22;25998;46.604;13.610;2023-04-25T16:32:03;13.20;97.30
40287;DHT22;25998;46.604;13.610;2023-04-25T16:35:14;13.20;97.80
40287;DHT22;25998;46.604;13.610;2023-04-25T16:38:25;13.30;98.10
40287;DHT22;25998;46.604;13.610;2023-04-25T16:41:36;13.30;97.70
40287;DHT22;25998;46.604;13.610;2023-04-25T16:44:47;13.20;98.20
40287;DHT22;25998;46.604;13.610;2023-04-25T16:47:57;13.00;98.60
40287;DHT22;25998;46.604;13.610;2023-04-25T16:51:08;12.70;98.80
40287;DHT22;25998;46.604;13.610;2023-04-25T16:54:22;12.70;99.40
40287;DHT22;25998;46.604;13.610;2023-04-25T16:57:35;12.70;99.50
40287;DHT22;25998;46.604;13.610;2023-04-25T17:00:47;12.90;99.50
40287;DHT22;25998;46.604;13.610;2023-04-25T17:03:57;13.00;99.60
40287;DHT22;25998;46.604;13.610;2023-04-25T17:07:08;12.90;99.50
40287;DHT22;25998;46.604;13.610;2023-04-25T17:10:19;12.90;99.80
40287;DHT22;25998;46.604;13.610;2023-04-25T17:13:31;12.60;99.90
40287;DHT22;25998;46.604;13.610;2023-04-25T17:16:42;12.50;99.90
40287;DHT22;25998;46.604;13.610;2023-04-25T17:19:53;12.60;99.90
40287;DHT22;25998;46.604;13.610;2023-04-25T17:23:04;12.50;99.90
40287;DHT22;25998;46.604;13.610;2023-04-25T17:26:14;12.60;99.90
40287;DHT22;25998;46.604;13.610;2023-04-25T17:29:25;12.60;99.90
40287;DHT22;25998;46.604;13.610;2023-04-25T17:32:37;12.60;99.90
40287;DHT22;25998;46.604;13.610;2023-04-25T17:35:48;12.70;99.90
40287;DHT22;25998;46.604;13.610;2023-04-25T17:38:59;12.60;99.90
40287;DHT22;25998;46.604;13.610;2023-04-25T17:42:10;12.40;99.90
40287;DHT22;25998;46.604;13.610;2023-04-25T17:45:24;12.20;99.90
40287;DHT22;25998;46.604;13.610;2023-04-25T17:48:35;12.20;99.90
40287;DHT22;25998;46.604;13.610;2023-04-25T17:51:46;12.20;99.90
40287;DHT22;25998;46.604;13.610;2023-04-25T17:54:57;12.10;99.90
40287;DHT22;25998;46.604;13.610;2023-04-25T17:58:11;12.10;99.90
40287;DHT22;25998;46.604;13.610;2023-04-25T18:01:21;11.90;99.90
40287;DHT22;25998;46.604;13.610;2023-04-25T18:04:32;11.80;99.90
40287;DHT22;25998;46.604;13.610;2023-04-25T18:07:44;11.50;99.90
40287;DHT22;25998;46.604;13.610;2023-04-25T18:10:56;11.20;99.90
40287;DHT22;25998;46.604;13.610;2023-04-25T18:14:07;11.00;99.90
40287;DHT22;25998;46.604;13.610;2023-04-25T18:17:23;10.80;99.90
40287;DHT22;25998;46.604;13.610;2023-04-25T18:20:34;10.60;99.90
40287;DHT22;25998;46.604;13.610;2023-04-25T18:23:45;10.50;99.90
40287;DHT22;25998;46.604;13.610;2023-04-25T18:26:56;10.40;99.90
40287;DHT22;25998;46.604;13.610;2023-04-25T18:30:11;10.40;99.90
40287;DHT22;25998;46.604;13.610;2023-04-25T18:33:22;10.50;99.90
40287;DHT22;25998;46.604;13.610;2023-04-25T18:36:33;10.60;99.90
40287;DHT22;25998;46.604;13.610;2023-04-25T18:39:44;10.70;99.90
40287;DHT22;25998;46.604;13.610;2023-04-25T18:42:55;10.80;99.90
40287;DHT22;25998;46.604;13.610;2023-04-25T18:46:06;10.80;99.90
40287;DHT22;25998;46.604;13.610;2023-04-25T18:49:17;10.60;99.90
40287;DHT22;25998;46.604;13.610;2023-04-25T18:52:28;10.60;99.90
40287;DHT22;25998;46.604;13.610;2023-04-25T18:55:39;10.60;99.90
40287;DHT22;25998;46.604;13.610;2023-04-25T18:58:51;10.60;99.90
40287;DHT22;25998;46.604;13.610;2023-04-25T19:02:03;10.60;99.90
40287;DHT22;25998;46.604;13.610;2023-04-25T19:05:14;10.50;99.90
40287;DHT22;25998;46.604;13.610;2023-04-25T19:08:25;10.30;99.90
40287;DHT22;25998;46.604;13.610;2023-04-25T19:11:36;10.30;99.90
40287;DHT22;25998;46.604;13.610;2023-04-25T19:14:49;10.10;99.90
40287;DHT22;25998;46.604;13.610;2023-04-25T19:18:00;10.00;99.90
40287;DHT22;25998;46.604;13.610;2023-04-25T19:21:11;10.00;99.90
40287;DHT22;25998;46.604;13.610;2023-04-25T19:24:22;10.00;99.90
40287;DHT22;25998;46.604;13.610;2023-04-25T19:27:33;10.00;99.90
40287;DHT22;25998;46.604;13.610;2023-04-25T19:30:44;10.10;99.90
40287;DHT22;25998;46.604;13.610;2023-04-25T19:33:55;10.00;99.90
40287;DHT22;25998;46.604;13.610;2023-04-25T19:37:06;9.90;99.90
40287;DHT22;25998;46.604;13.610;2023-04-25T19:40:17;9.80;99.90
40287;DHT22;25998;46.604;13.610;2023-04-25T19:43:30;9.80;99.90
40287;DHT22;25998;46.604;13.610;2023-04-25T19:46:41;9.80;99.90
40287;DHT22;25998;46.604;13.610;2023-04-25T19:49:55;9.80;99.40
40287;DHT22;25998;46.604;13.610;2023-04-25T19:53:05;9.60;99.70
40287;DHT22;25998;46.604;13.610;2023-04-25T19:56:16;9.30;99.90
40287;DHT22;25998;46.604;13.610;2023-04-25T19:59:27;9.30;99.90
40287;DHT22;25998;46.604;13.610;2023-04-25T20:02:38;9.40;99.90
40287;DHT22;25998;46.604;13.610;2023-04-25T20:05:50;9.50;99.90